sensor_id;sensor_type;location;lat;lon;timestamp;P1;durP1;ratioP1;P2;durP2;ratioP2
3066;SDS011;1544;48.834;9.194;2023-08-21T00:00:15;7.50;;;6.90;;
3066;SDS011;1544;48.834;9.194;2023-08-21T00:02:51;6.60;;;6.10;;
3066;SDS011;1544;48.834;9.194;2023-08-21T00:05:27;6.07;;;5.77;;
3066;SDS011;1544;48.834;9.194;2023-08-21T00:08:03;6.37;;;5.97;;
3066;SDS011;1544;48.834;9.194;2023-08-21T00:10:39;5.90;;;5.60;;
3066;SDS011;1544;48.834;9.194;2023-08-21T00:13:16;7.27;;;6.77;;
3066;SDS011;1544;48.834;9.194;2023-08-21T00:15:52;7.10;;;6.70;;
3066;SDS011;1544;48.834;9.194;2023-08-21T00:18:29;7.50;;;6.80;;
3066;SDS011;1544;48.834;9.194;2023-08-21T00:21:05;6.60;;;6.20;;
3066;SDS011;1544;48.834;9.194;2023-08-21T00:23:41;7.13;;;6.50;;
3066;SDS011;1544;48.834;9.194;2023-08-21T00:26:17;5.83;;;5.43;;
3066;SDS011;1544;48.834;9.194;2023-08-21T00:28:53;6.47;;;6.07;;
3066;SDS011;1544;48.834;9.194;2023-08-21T00:31:29;6.30;;;5.77;;
3066;SDS011;1544;48.834;9.194;2023-08-21T00:34:05;6.30;;;5.90;;
3066;SDS011;1544;48.834;9.194;2023-08-21T00:36:41;6.30;;;6.00;;
3066;SDS011;1544;48.834;9.194;2023-08-21T00:39:17;6.37;;;5.97;;
3066;SDS011;1544;48.834;9.194;2023-08-21T00:41:53;8.07;;;7.37;;
3066;SDS011;1544;48.834;9.194;2023-08-21T00:44:30;6.43;;;6.03;;
3066;SDS011;1544;48.834;9.194;2023-08-21T00:47:06;6.53;;;6.13;;
3066;SDS011;1544;48.834;9.194;2023-08-21T00:49:42;6.73;;;6.33;;
3066;SDS011;1544;48.834;9.194;2023-08-21T00:52:18;6.63;;;6.23;;
3066;SDS011;1544;48.834;9.194;2023-08-21T00:54:54;7.47;;;6.83;;
3066;SDS011;1544;48.834;9.194;2023-08-21T00:57:31;6.70;;;6.30;;
3066;SDS011;1544;48.834;9.194;2023-08-21T01:00:07;7.33;;;6.63;;
3066;SDS011;1544;48.834;9.194;2023-08-21T01:02:45;6.20;;;5.80;;
3066;SDS011;1544;48.834;9.194;2023-08-21T01:05:22;6.10;;;5.70;;
3066;SDS011;1544;48.834;9.194;2023-08-21T01:08:05;7.00;;;6.40;;
3066;SDS011;1544;48.834;9.194;2023-08-21T01:11:13;7.10;;;6.50;;
3066;SDS011;1544;48.834;9.194;2023-08-21T01:17:11;7.37;;;6.73;;
3066;SDS011;1544;48.834;9.194;2023-08-21T01:19:50;7.30;;;6.80;;
3066;SDS011;1544;48.834;9.194;2023-08-21T01:22:27;6.60;;;6.20;;
3066;SDS011;1544;48.834;9.194;2023-08-21T01:25:12;6.33;;;5.90;;
3066;SDS011;1544;48.834;9.194;2023-08-21T01:27:48;6.73;;;6.33;;
3066;SDS011;1544;48.834;9.194;2023-08-21T01:30:26;6.60;;;5.77;;
3066;SDS011;1544;48.834;9.194;2023-08-21T01:33:08;6.90;;;6.17;;
3066;SDS011;1544;48.834;9.194;2023-08-21T01:35:48;6.37;;;5.93;;
3066;SDS011;1544;48.834;9.194;2023-08-21T01:38:25;6.83;;;6.33;;
3066;SDS011;1544;48.834;9.194;2023-08-21T01:41:02;6.97;;;6.40;;
3066;SDS011;1544;48.834;9.194;2023-08-21T01:43:38;6.70;;;6.30;;
3066;SDS011;1544;48.834;9.194;2023-08-21T01:46:14;6.53;;;6.17;;
3066;SDS011;1544;48.834;9.194;2023-08-21T01:48:50;6.40;;;5.90;;
3066;SDS011;1544;48.834;9.194;2023-08-21T01:51:26;7.50;;;6.90;;
3066;SDS011;1544;48.834;9.194;2023-08-21T01:54:02;6.80;;;6.30;;
3066;SDS011;1544;48.834;9.194;2023-08-21T01:56:38;6.87;;;6.47;;
3066;SDS011;1544;48.834;9.194;2023-08-21T01:59:15;7.33;;;6.77;;
3066;SDS011;1544;48.834;9.194;2023-08-21T02:01:53;6.67;;;6.27;;
3066;SDS011;1544;48.834;9.194;2023-08-21T02:04:29;7.00;;;6.50;;
3066;SDS011;1544;48.834;9.194;2023-08-21T02:07:05;6.70;;;6.20;;
3066;SDS011;1544;48.834;9.194;2023-08-21T02:09:42;7.30;;;6.80;;
3066;SDS011;1544;48.834;9.194;2023-08-21T02:12:18;7.73;;;7.03;;
3066;SDS011;1544;48.834;9.194;2023-08-21T02:14:54;7.33;;;6.93;;
3066;SDS011;1544;48.834;9.194;2023-08-21T02:17:30;7.43;;;6.83;;
3066;SDS011;1544;48.834;9.194;2023-08-21T02:20:07;7.90;;;7.20;;
3066;SDS011;1544;48.834;9.194;2023-08-21T02:22:44;7.77;;;7.23;;
3066;SDS011;1544;48.834;9.194;2023-08-21T02:25:20;8.00;;;7.40;;
3066;SDS011;1544;48.834;9.194;2023-08-21T02:27:56;7.90;;;7.30;;
3066;SDS011;1544;48.834;9.194;2023-08-21T02:30:32;8.47;;;7.77;;
3066;SDS011;1544;48.834;9.194;2023-08-21T02:33:08;8.43;;;7.87;;
3066;SDS011;1544;48.834;9.194;2023-08-21T02:35:46;7.60;;;7.10;;
3066;SDS011;1544;48.834;9.194;2023-08-21T02:38:22;8.57;;;7.87;;
3066;SDS011;1544;48.834;9.194;2023-08-21T02:40:58;8.07;;;7.57;;
3066;SDS011;1544;48.834;9.194;2023-08-21T02:43:34;9.17;;;8.07;;
3066;SDS011;1544;48.834;9.194;2023-08-21T02:46:10;7.80;;;7.30;;
3066;SDS011;1544;48.834;9.194;2023-08-21T02:48:46;7.87;;;7.47;;
3066;SDS011;1544;48.834;9.194;2023-08-21T02:51:22;8.43;;;7.83;;
3066;SDS011;1544;48.834;9.194;2023-08-21T02:53:58;8.60;;;7.30;;
3066;SDS011;1544;48.834;9.194;2023-08-21T02:56:34;8.23;;;7.63;;
3066;SDS011;1544;48.834;9.194;2023-08-21T02:59:10;8.10;;;7.50;;
3066;SDS011;1544;48.834;9.194;2023-08-21T03:01:46;8.13;;;7.53;;
3066;SDS011;1544;48.834;9.194;2023-08-21T03:04:22;8.43;;;7.73;;
3066;SDS011;1544;48.834;9.194;2023-08-21T03:06:58;8.27;;;7.67;;
3066;SDS011;1544;48.834;9.194;2023-08-21T03:09:35;8.23;;;7.43;;
3066;SDS011;1544;48.834;9.194;2023-08-21T03:12:13;7.73;;;7.10;;
3066;SDS011;1544;48.834;9.194;2023-08-21T03:14:49;8.50;;;7.80;;
3066;SDS011;1544;48.834;9.194;2023-08-21T03:17:25;8.00;;;7.50;;
3066;SDS011;1544;48.834;9.194;2023-08-21T03:20:02;7.83;;;7.33;;
3066;SDS011;1544;48.834;9.194;2023-08-21T03:22:42;7.90;;;7.30;;
3066;SDS011;1544;48.834;9.194;2023-08-21T03:25:18;7.97;;;7.37;;
3066;SDS011;1544;48.834;9.194;2023-08-21T03:27:54;7.33;;;6.83;;
3066;SDS011;1544;48.834;9.194;2023-08-21T03:30:30;8.07;;;7.37;;
3066;SDS011;1544;48.834;9.194;2023-08-21T03:33:06;8.20;;;7.70;;
3066;SDS011;1544;48.834;9.194;2023-08-21T03:35:43;8.27;;;7.77;;
3066;SDS011;1544;48.834;9.194;2023-08-21T03:38:19;7.93;;;7.40;;
3066;SDS011;1544;48.834;9.194;2023-08-21T03:40:55;7.30;;;6.80;;
3066;SDS011;1544;48.834;9.194;2023-08-21T03:43:32;8.43;;;7.93;;
3066;SDS011;1544;48.834;9.194;2023-08-21T03:46:08;7.50;;;7.10;;
3066;SDS011;1544;48.834;9.194;2023-08-21T03:48:44;6.33;;;5.93;;
3066;SDS011;1544;48.834;9.194;2023-08-21T03:51:20;8.23;;;7.60;;
3066;SDS011;1544;48.834;9.194;2023-08-21T03:53:56;9.43;;;7.60;;
3066;SDS011;1544;48.834;9.194;2023-08-21T03:56:32;8.13;;;7.43;;
3066;SDS011;1544;48.834;9.194;2023-08-21T03:59:08;7.90;;;7.30;;
3066;SDS011;1544;48.834;9.194;2023-08-21T04:01:44;7.93;;;7.33;;
3066;SDS011;1544;48.834;9.194;2023-08-21T04:04:20;8.80;;;8.00;;
3066;SDS011;1544;48.834;9.194;2023-08-21T04:06:55;7.63;;;7.13;;
3066;SDS011;1544;48.834;9.194;2023-08-21T04:09:33;7.23;;;6.63;;
3066;SDS011;1544;48.834;9.194;2023-08-21T04:12:09;7.80;;;7.27;;
3066;SDS011;1544;48.834;9.194;2023-08-21T04:14:44;8.53;;;7.83;;
3066;SDS011;1544;48.834;9.194;2023-08-21T04:17:22;8.47;;;7.77;;
3066;SDS011;1544;48.834;9.194;2023-08-21T04:19:59;8.47;;;7.53;;
3066;SDS011;1544;48.834;9.194;2023-08-21T04:22:36;7.60;;;7.10;;
3066;SDS011;1544;48.834;9.194;2023-08-21T04:25:12;8.30;;;7.67;;
3066;SDS011;1544;48.834;9.194;2023-08-21T04:27:48;9.30;;;8.40;;
3066;SDS011;1544;48.834;9.194;2023-08-21T04:30:24;8.87;;;8.27;;
3066;SDS011;1544;48.834;9.194;2023-08-21T04:33:01;8.70;;;7.90;;
3066;SDS011;1544;48.834;9.194;2023-08-21T04:35:37;9.40;;;8.60;;
3066;SDS011;1544;48.834;9.194;2023-08-21T04:38:14;8.50;;;8.00;;
3066;SDS011;1544;48.834;9.194;2023-08-21T04:40:50;9.07;;;8.40;;
3066;SDS011;1544;48.834;9.194;2023-08-21T04:43:27;8.07;;;7.57;;
3066;SDS011;1544;48.834;9.194;2023-08-21T04:46:03;8.20;;;7.60;;
3066;SDS011;1544;48.834;9.194;2023-08-21T04:48:41;7.77;;;7.17;;
3066;SDS011;1544;48.834;9.194;2023-08-21T04:51:17;8.30;;;7.70;;
3066;SDS011;1544;48.834;9.194;2023-08-21T04:53:53;8.80;;;8.00;;
3066;SDS011;1544;48.834;9.194;2023-08-21T04:56:30;7.77;;;7.27;;
3066;SDS011;1544;48.834;9.194;2023-08-21T04:59:06;8.33;;;7.70;;
3066;SDS011;1544;48.834;9.194;2023-08-21T05:01:43;8.40;;;7.70;;
3066;SDS011;1544;48.834;9.194;2023-08-21T05:04:20;9.17;;;8.47;;
3066;SDS011;1544;48.834;9.194;2023-08-21T05:06:58;7.77;;;6.93;;
3066;SDS011;1544;48.834;9.194;2023-08-21T05:09:34;7.57;;;7.00;;
3066;SDS011;1544;48.834;9.194;2023-08-21T05:12:10;7.83;;;7.30;;
3066;SDS011;1544;48.834;9.194;2023-08-21T05:14:47;7.70;;;7.10;;
3066;SDS011;1544;48.834;9.194;2023-08-21T05:17:24;8.07;;;7.30;;
3066;SDS011;1544;48.834;9.194;2023-08-21T05:20:01;8.40;;;7.70;;
3066;SDS011;1544;48.834;9.194;2023-08-21T05:22:38;7.83;;;7.10;;
3066;SDS011;1544;48.834;9.194;2023-08-21T05:25:15;8.77;;;8.07;;
3066;SDS011;1544;48.834;9.194;2023-08-21T05:27:51;8.63;;;7.93;;
3066;SDS011;1544;48.834;9.194;2023-08-21T05:30:27;8.07;;;7.47;;
3066;SDS011;1544;48.834;9.194;2023-08-21T05:33:03;8.07;;;7.47;;
3066;SDS011;1544;48.834;9.194;2023-08-21T05:35:41;8.13;;;7.37;;
3066;SDS011;1544;48.834;9.194;2023-08-21T05:38:18;7.87;;;7.27;;
3066;SDS011;1544;48.834;9.194;2023-08-21T05:40:54;7.70;;;7.10;;
3066;SDS011;1544;48.834;9.194;2023-08-21T05:43:31;7.30;;;6.80;;
3066;SDS011;1544;48.834;9.194;2023-08-21T05:46:07;7.30;;;6.80;;
3066;SDS011;1544;48.834;9.194;2023-08-21T05:48:43;7.87;;;7.20;;
3066;SDS011;1544;48.834;9.194;2023-08-21T05:51:19;8.33;;;7.80;;
3066;SDS011;1544;48.834;9.194;2023-08-21T05:53:55;7.67;;;7.00;;
3066;SDS011;1544;48.834;9.194;2023-08-21T05:56:31;8.40;;;7.80;;
3066;SDS011;1544;48.834;9.194;2023-08-21T05:59:09;7.50;;;6.90;;
3066;SDS011;1544;48.834;9.194;2023-08-21T06:01:46;7.40;;;6.90;;
3066;SDS011;1544;48.834;9.194;2023-08-21T06:04:23;7.10;;;6.60;;
3066;SDS011;1544;48.834;9.194;2023-08-21T06:07:05;6.80;;;6.40;;
3066;SDS011;1544;48.834;9.194;2023-08-21T06:09:42;6.97;;;6.50;;
3066;SDS011;1544;48.834;9.194;2023-08-21T06:12:18;6.87;;;6.37;;
3066;SDS011;1544;48.834;9.194;2023-08-21T06:14:54;6.73;;;6.23;;
3066;SDS011;1544;48.834;9.194;2023-08-21T06:17:31;7.47;;;6.87;;
3066;SDS011;1544;48.834;9.194;2023-08-21T06:20:07;7.63;;;7.03;;
3066;SDS011;1544;48.834;9.194;2023-08-21T06:22:46;6.77;;;6.27;;
3066;SDS011;1544;48.834;9.194;2023-08-21T06:25:22;7.23;;;6.53;;
3066;SDS011;1544;48.834;9.194;2023-08-21T06:27:58;6.60;;;6.20;;
3066;SDS011;1544;48.834;9.194;2023-08-21T06:30:34;8.07;;;7.30;;
3066;SDS011;1544;48.834;9.194;2023-08-21T06:33:11;6.27;;;5.77;;
3066;SDS011;1544;48.834;9.194;2023-08-21T06:35:47;6.07;;;5.77;;
3066;SDS011;1544;48.834;9.194;2023-08-21T06:38:24;6.50;;;6.10;;
3066;SDS011;1544;48.834;9.194;2023-08-21T06:41:01;6.90;;;6.20;;
3066;SDS011;1544;48.834;9.194;2023-08-21T06:43:43;8.00;;;7.30;;
3066;SDS011;1544;48.834;9.194;2023-08-21T06:46:24;6.00;;;5.60;;
3066;SDS011;1544;48.834;9.194;2023-08-21T06:49:00;10.10;;;9.30;;
3066;SDS011;1544;48.834;9.194;2023-08-21T06:51:36;8.43;;;7.83;;
3066;SDS011;1544;48.834;9.194;2023-08-21T06:54:12;7.93;;;7.23;;
3066;SDS011;1544;48.834;9.194;2023-08-21T06:56:48;6.43;;;6.03;;
3066;SDS011;1544;48.834;9.194;2023-08-21T06:59:24;6.03;;;5.73;;
3066;SDS011;1544;48.834;9.194;2023-08-21T07:02:00;5.83;;;5.53;;
3066;SDS011;1544;48.834;9.194;2023-08-21T07:04:36;6.37;;;6.07;;
3066;SDS011;1544;48.834;9.194;2023-08-21T07:07:12;7.87;;;7.10;;
3066;SDS011;1544;48.834;9.194;2023-08-21T07:09:48;7.70;;;7.20;;
3066;SDS011;1544;48.834;9.194;2023-08-21T07:12:25;6.77;;;6.27;;
3066;SDS011;1544;48.834;9.194;2023-08-21T07:15:01;6.43;;;6.00;;
3066;SDS011;1544;48.834;9.194;2023-08-21T07:17:37;6.43;;;6.13;;
3066;SDS011;1544;48.834;9.194;2023-08-21T07:20:13;6.07;;;5.77;;
3066;SDS011;1544;48.834;9.194;2023-08-21T07:22:49;6.63;;;6.10;;
3066;SDS011;1544;48.834;9.194;2023-08-21T07:25:25;7.20;;;6.53;;
3066;SDS011;1544;48.834;9.194;2023-08-21T07:28:02;6.87;;;6.37;;
3066;SDS011;1544;48.834;9.194;2023-08-21T07:30:39;8.50;;;7.90;;
3066;SDS011;1544;48.834;9.194;2023-08-21T07:33:15;7.70;;;6.43;;
3066;SDS011;1544;48.834;9.194;2023-08-21T07:36:24;7.57;;;6.87;;
3066;SDS011;1544;48.834;9.194;2023-08-21T07:38:54;7.50;;;6.40;;
3066;SDS011;1544;48.834;9.194;2023-08-21T07:41:30;8.00;;;7.40;;
3066;SDS011;1544;48.834;9.194;2023-08-21T07:44:06;7.50;;;7.00;;
3066;SDS011;1544;48.834;9.194;2023-08-21T07:46:42;7.00;;;6.60;;
3066;SDS011;1544;48.834;9.194;2023-08-21T07:49:18;6.70;;;6.30;;
3066;SDS011;1544;48.834;9.194;2023-08-21T07:51:53;9.53;;;8.47;;
3066;SDS011;1544;48.834;9.194;2023-08-21T07:54:30;7.10;;;6.60;;
3066;SDS011;1544;48.834;9.194;2023-08-21T07:57:06;8.00;;;7.33;;
3066;SDS011;1544;48.834;9.194;2023-08-21T07:59:41;10.33;;;9.53;;
3066;SDS011;1544;48.834;9.194;2023-08-21T08:02:17;8.53;;;7.93;;
3066;SDS011;1544;48.834;9.194;2023-08-21T08:04:53;9.37;;;8.57;;
3066;SDS011;1544;48.834;9.194;2023-08-21T08:07:29;8.00;;;7.47;;
3066;SDS011;1544;48.834;9.194;2023-08-21T08:10:05;8.13;;;7.47;;
3066;SDS011;1544;48.834;9.194;2023-08-21T08:12:42;9.93;;;8.90;;
3066;SDS011;1544;48.834;9.194;2023-08-21T08:15:19;12.90;;;11.77;;
3066;SDS011;1544;48.834;9.194;2023-08-21T08:17:56;11.30;;;10.20;;
3066;SDS011;1544;48.834;9.194;2023-08-21T08:20:33;7.50;;;6.90;;
3066;SDS011;1544;48.834;9.194;2023-08-21T08:23:09;8.03;;;7.30;;
3066;SDS011;1544;48.834;9.194;2023-08-21T08:25:44;10.33;;;9.30;;
3066;SDS011;1544;48.834;9.194;2023-08-21T08:28:20;11.17;;;9.90;;
3066;SDS011;1544;48.834;9.194;2023-08-21T08:30:56;9.20;;;8.57;;
3066;SDS011;1544;48.834;9.194;2023-08-21T08:33:33;7.73;;;7.23;;
3066;SDS011;1544;48.834;9.194;2023-08-21T08:36:09;7.70;;;7.20;;
3066;SDS011;1544;48.834;9.194;2023-08-21T08:38:45;7.50;;;7.00;;
3066;SDS011;1544;48.834;9.194;2023-08-21T08:44:19;6.97;;;6.43;;
3066;SDS011;1544;48.834;9.194;2023-08-21T08:46:55;7.53;;;7.07;;
3066;SDS011;1544;48.834;9.194;2023-08-21T08:49:31;8.13;;;7.43;;
3066;SDS011;1544;48.834;9.194;2023-08-21T08:52:07;6.97;;;6.47;;
3066;SDS011;1544;48.834;9.194;2023-08-21T08:54:45;7.70;;;7.20;;
3066;SDS011;1544;48.834;9.194;2023-08-21T08:57:21;10.37;;;7.10;;
3066;SDS011;1544;48.834;9.194;2023-08-21T08:59:57;7.30;;;6.77;;
3066;SDS011;1544;48.834;9.194;2023-08-21T09:02:34;8.77;;;8.17;;
3066;SDS011;1544;48.834;9.194;2023-08-21T09:05:10;8.10;;;7.60;;
3066;SDS011;1544;48.834;9.194;2023-08-21T09:07:46;7.60;;;6.90;;
3066;SDS011;1544;48.834;9.194;2023-08-21T09:10:39;7.57;;;7.07;;
3066;SDS011;1544;48.834;9.194;2023-08-21T09:13:18;7.20;;;6.80;;
3066;SDS011;1544;48.834;9.194;2023-08-21T09:15:55;7.40;;;6.80;;
3066;SDS011;1544;48.834;9.194;2023-08-21T09:18:33;7.37;;;6.67;;
3066;SDS011;1544;48.834;9.194;2023-08-21T09:21:10;7.20;;;6.70;;
3066;SDS011;1544;48.834;9.194;2023-08-21T09:23:46;8.33;;;7.53;;
3066;SDS011;1544;48.834;9.194;2023-08-21T09:26:23;8.00;;;7.30;;
3066;SDS011;1544;48.834;9.194;2023-08-21T09:29:01;11.70;;;7.20;;
3066;SDS011;1544;48.834;9.194;2023-08-21T09:31:42;13.77;;;8.10;;
3066;SDS011;1544;48.834;9.194;2023-08-21T09:34:20;7.83;;;7.30;;
3066;SDS011;1544;48.834;9.194;2023-08-21T09:36:56;8.07;;;7.27;;
3066;SDS011;1544;48.834;9.194;2023-08-21T09:39:33;7.00;;;6.47;;
3066;SDS011;1544;48.834;9.194;2023-08-21T09:42:10;10.50;;;9.60;;
3066;SDS011;1544;48.834;9.194;2023-08-21T09:44:46;8.23;;;7.63;;
3066;SDS011;1544;48.834;9.194;2023-08-21T09:47:26;7.50;;;6.80;;
3066;SDS011;1544;48.834;9.194;2023-08-21T09:50:04;10.27;;;6.53;;
3066;SDS011;1544;48.834;9.194;2023-08-21T09:52:40;8.67;;;7.90;;
3066;SDS011;1544;48.834;9.194;2023-08-21T09:55:18;5.83;;;5.53;;
3066;SDS011;1544;48.834;9.194;2023-08-21T09:57:54;5.10;;;4.80;;
3066;SDS011;1544;48.834;9.194;2023-08-21T10:04:43;6.00;;;5.60;;
3066;SDS011;1544;48.834;9.194;2023-08-21T10:07:21;6.40;;;5.90;;
3066;SDS011;1544;48.834;9.194;2023-08-21T10:10:01;5.90;;;5.30;;
3066;SDS011;1544;48.834;9.194;2023-08-21T10:12:37;5.90;;;5.33;;
3066;SDS011;1544;48.834;9.194;2023-08-21T10:15:13;7.50;;;6.20;;
3066;SDS011;1544;48.834;9.194;2023-08-21T10:17:49;5.80;;;5.30;;
3066;SDS011;1544;48.834;9.194;2023-08-21T10:20:25;6.00;;;5.60;;
3066;SDS011;1544;48.834;9.194;2023-08-21T10:23:01;6.17;;;5.67;;
3066;SDS011;1544;48.834;9.194;2023-08-21T10:25:41;5.53;;;5.20;;
3066;SDS011;1544;48.834;9.194;2023-08-21T10:28:17;5.67;;;5.27;;
3066;SDS011;1544;48.834;9.194;2023-08-21T10:30:53;6.60;;;6.20;;
3066;SDS011;1544;48.834;9.194;2023-08-21T10:33:47;6.97;;;6.47;;
3066;SDS011;1544;48.834;9.194;2023-08-21T10:37:09;5.93;;;5.37;;
3066;SDS011;1544;48.834;9.194;2023-08-21T10:39:23;5.37;;;4.97;;
3066;SDS011;1544;48.834;9.194;2023-08-21T10:42:01;5.67;;;5.27;;
3066;SDS011;1544;48.834;9.194;2023-08-21T10:44:49;5.57;;;5.03;;
3066;SDS011;1544;48.834;9.194;2023-08-21T10:47:34;6.07;;;5.20;;
3066;SDS011;1544;48.834;9.194;2023-08-21T10:50:11;11.00;;;5.70;;
3066;SDS011;1544;48.834;9.194;2023-08-21T10:52:47;5.30;;;5.00;;
3066;SDS011;1544;48.834;9.194;2023-08-21T10:55:28;6.87;;;4.63;;
3066;SDS011;1544;48.834;9.194;2023-08-21T10:58:04;5.80;;;5.30;;
3066;SDS011;1544;48.834;9.194;2023-08-21T11:00:44;5.63;;;5.20;;
3066;SDS011;1544;48.834;9.194;2023-08-21T11:03:20;5.40;;;5.00;;
3066;SDS011;1544;48.834;9.194;2023-08-21T11:06:03;5.40;;;4.40;;
3066;SDS011;1544;48.834;9.194;2023-08-21T11:08:43;5.73;;;4.63;;
3066;SDS011;1544;48.834;9.194;2023-08-21T11:11:19;4.70;;;4.40;;
3066;SDS011;1544;48.834;9.194;2023-08-21T11:13:56;6.03;;;4.70;;
3066;SDS011;1544;48.834;9.194;2023-08-21T11:16:32;4.87;;;4.60;;
3066;SDS011;1544;48.834;9.194;2023-08-21T11:19:08;5.47;;;4.97;;
3066;SDS011;1544;48.834;9.194;2023-08-21T11:21:50;5.40;;;5.00;;
3066;SDS011;1544;48.834;9.194;2023-08-21T11:27:16;5.80;;;5.23;;
3066;SDS011;1544;48.834;9.194;2023-08-21T11:29:53;5.00;;;4.70;;
3066;SDS011;1544;48.834;9.194;2023-08-21T11:32:29;6.73;;;4.50;;
3066;SDS011;1544;48.834;9.194;2023-08-21T11:35:05;5.67;;;5.27;;
3066;SDS011;1544;48.834;9.194;2023-08-21T11:37:45;5.30;;;4.90;;
3066;SDS011;1544;48.834;9.194;2023-08-21T11:40:21;5.60;;;5.20;;
3066;SDS011;1544;48.834;9.194;2023-08-21T11:43:00;5.77;;;5.43;;
3066;SDS011;1544;48.834;9.194;2023-08-21T11:45:37;4.67;;;4.37;;
3066;SDS011;1544;48.834;9.194;2023-08-21T11:48:31;5.77;;;5.37;;
3066;SDS011;1544;48.834;9.194;2023-08-21T11:51:08;5.83;;;5.33;;
3066;SDS011;1544;48.834;9.194;2023-08-21T11:53:44;4.83;;;4.43;;
3066;SDS011;1544;48.834;9.194;2023-08-21T11:56:27;4.60;;;4.40;;
3066;SDS011;1544;48.834;9.194;2023-08-21T11:59:04;4.87;;;4.63;;
3066;SDS011;1544;48.834;9.194;2023-08-21T12:01:41;5.30;;;4.80;;
3066;SDS011;1544;48.834;9.194;2023-08-21T12:04:17;7.77;;;5.43;;
3066;SDS011;1544;48.834;9.194;2023-08-21T12:06:53;6.43;;;6.00;;
3066;SDS011;1544;48.834;9.194;2023-08-21T12:09:29;6.07;;;5.53;;
3066;SDS011;1544;48.834;9.194;2023-08-21T12:12:05;6.20;;;5.70;;
3066;SDS011;1544;48.834;9.194;2023-08-21T12:14:41;5.33;;;4.97;;
3066;SDS011;1544;48.834;9.194;2023-08-21T12:17:17;5.67;;;5.27;;
3066;SDS011;1544;48.834;9.194;2023-08-21T12:19:53;6.13;;;5.53;;
3066;SDS011;1544;48.834;9.194;2023-08-21T12:22:29;5.40;;;5.03;;
3066;SDS011;1544;48.834;9.194;2023-08-21T12:25:06;5.67;;;5.27;;
3066;SDS011;1544;48.834;9.194;2023-08-21T12:27:42;5.20;;;4.73;;
3066;SDS011;1544;48.834;9.194;2023-08-21T12:30:21;5.53;;;5.20;;
3066;SDS011;1544;48.834;9.194;2023-08-21T12:32:57;5.93;;;5.43;;
3066;SDS011;1544;48.834;9.194;2023-08-21T12:35:51;5.60;;;5.07;;
3066;SDS011;1544;48.834;9.194;2023-08-21T12:38:27;5.60;;;5.10;;
3066;SDS011;1544;48.834;9.194;2023-08-21T12:41:04;4.60;;;4.20;;
3066;SDS011;1544;48.834;9.194;2023-08-21T12:43:40;5.57;;;5.07;;
3066;SDS011;1544;48.834;9.194;2023-08-21T12:46:16;9.10;;;4.80;;
3066;SDS011;1544;48.834;9.194;2023-08-21T12:48:53;5.27;;;4.73;;
3066;SDS011;1544;48.834;9.194;2023-08-21T12:51:29;5.83;;;5.30;;
3066;SDS011;1544;48.834;9.194;2023-08-21T12:54:05;5.57;;;5.10;;
3066;SDS011;1544;48.834;9.194;2023-08-21T12:56:41;4.83;;;4.53;;
3066;SDS011;1544;48.834;9.194;2023-08-21T12:59:17;4.83;;;4.40;;
3066;SDS011;1544;48.834;9.194;2023-08-21T13:01:54;5.13;;;4.93;;
3066;SDS011;1544;48.834;9.194;2023-08-21T13:04:30;5.50;;;5.20;;
3066;SDS011;1544;48.834;9.194;2023-08-21T13:07:06;6.47;;;5.87;;
3066;SDS011;1544;48.834;9.194;2023-08-21T13:09:42;5.33;;;4.93;;
3066;SDS011;1544;48.834;9.194;2023-08-21T13:12:18;5.17;;;4.87;;
3066;SDS011;1544;48.834;9.194;2023-08-21T13:14:54;6.70;;;5.10;;
3066;SDS011;1544;48.834;9.194;2023-08-21T13:17:30;4.93;;;4.63;;
3066;SDS011;1544;48.834;9.194;2023-08-21T13:20:06;9.77;;;4.60;;
3066;SDS011;1544;48.834;9.194;2023-08-21T13:22:45;5.37;;;4.90;;
3066;SDS011;1544;48.834;9.194;2023-08-21T13:25:26;4.70;;;4.40;;
3066;SDS011;1544;48.834;9.194;2023-08-21T13:28:02;4.50;;;4.20;;
3066;SDS011;1544;48.834;9.194;2023-08-21T13:30:39;4.90;;;4.67;;
3066;SDS011;1544;48.834;9.194;2023-08-21T13:33:15;5.03;;;4.73;;
3066;SDS011;1544;48.834;9.194;2023-08-21T13:35:53;6.73;;;4.50;;
3066;SDS011;1544;48.834;9.194;2023-08-21T13:38:29;6.83;;;5.97;;
3066;SDS011;1544;48.834;9.194;2023-08-21T13:41:07;5.10;;;4.80;;
3066;SDS011;1544;48.834;9.194;2023-08-21T13:43:44;4.53;;;4.20;;
3066;SDS011;1544;48.834;9.194;2023-08-21T13:46:20;4.97;;;4.60;;
3066;SDS011;1544;48.834;9.194;2023-08-21T13:48:56;4.40;;;4.00;;
3066;SDS011;1544;48.834;9.194;2023-08-21T13:51:32;5.57;;;5.27;;
3066;SDS011;1544;48.834;9.194;2023-08-21T13:54:08;4.93;;;4.60;;
3066;SDS011;1544;48.834;9.194;2023-08-21T13:56:44;4.77;;;4.40;;
3066;SDS011;1544;48.834;9.194;2023-08-21T13:59:20;4.93;;;4.50;;
3066;SDS011;1544;48.834;9.194;2023-08-21T14:01:56;5.03;;;4.60;;
3066;SDS011;1544;48.834;9.194;2023-08-21T14:04:32;4.20;;;4.00;;
3066;SDS011;1544;48.834;9.194;2023-08-21T14:07:08;7.60;;;4.30;;
3066;SDS011;1544;48.834;9.194;2023-08-21T14:09:44;4.70;;;4.40;;
3066;SDS011;1544;48.834;9.194;2023-08-21T14:12:20;5.47;;;5.03;;
3066;SDS011;1544;48.834;9.194;2023-08-21T14:14:56;3.97;;;3.80;;
3066;SDS011;1544;48.834;9.194;2023-08-21T14:17:33;4.70;;;4.20;;
3066;SDS011;1544;48.834;9.194;2023-08-21T14:20:10;8.00;;;4.37;;
3066;SDS011;1544;48.834;9.194;2023-08-21T14:22:46;5.07;;;4.63;;
3066;SDS011;1544;48.834;9.194;2023-08-21T14:25:22;4.43;;;4.20;;
3066;SDS011;1544;48.834;9.194;2023-08-21T14:27:58;4.20;;;4.00;;
3066;SDS011;1544;48.834;9.194;2023-08-21T14:30:34;3.87;;;3.67;;
3066;SDS011;1544;48.834;9.194;2023-08-21T14:33:10;4.43;;;4.10;;
3066;SDS011;1544;48.834;9.194;2023-08-21T14:35:47;4.43;;;4.13;;
3066;SDS011;1544;48.834;9.194;2023-08-21T14:38:23;4.33;;;4.13;;
3066;SDS011;1544;48.834;9.194;2023-08-21T14:41:00;4.50;;;4.20;;
3066;SDS011;1544;48.834;9.194;2023-08-21T14:43:36;4.77;;;4.37;;
3066;SDS011;1544;48.834;9.194;2023-08-21T14:46:12;4.70;;;4.30;;
3066;SDS011;1544;48.834;9.194;2023-08-21T14:48:55;5.80;;;4.30;;
3066;SDS011;1544;48.834;9.194;2023-08-21T14:51:30;5.13;;;4.70;;
3066;SDS011;1544;48.834;9.194;2023-08-21T14:54:06;4.70;;;4.20;;
3066;SDS011;1544;48.834;9.194;2023-08-21T14:56:42;3.70;;;3.60;;
3066;SDS011;1544;48.834;9.194;2023-08-21T14:59:19;4.13;;;3.93;;
3066;SDS011;1544;48.834;9.194;2023-08-21T15:01:54;3.87;;;3.67;;
3066;SDS011;1544;48.834;9.194;2023-08-21T15:04:31;7.27;;;6.77;;
3066;SDS011;1544;48.834;9.194;2023-08-21T15:07:06;4.57;;;4.30;;
3066;SDS011;1544;48.834;9.194;2023-08-21T15:09:42;4.20;;;4.00;;
3066;SDS011;1544;48.834;9.194;2023-08-21T15:12:19;4.27;;;4.07;;
3066;SDS011;1544;48.834;9.194;2023-08-21T15:14:55;4.87;;;4.53;;
3066;SDS011;1544;48.834;9.194;2023-08-21T15:17:31;4.20;;;3.93;;
3066;SDS011;1544;48.834;9.194;2023-08-21T15:20:08;3.70;;;3.50;;
3066;SDS011;1544;48.834;9.194;2023-08-21T15:22:44;3.83;;;3.60;;
3066;SDS011;1544;48.834;9.194;2023-08-21T15:25:20;4.07;;;3.63;;
3066;SDS011;1544;48.834;9.194;2023-08-21T15:27:56;4.87;;;4.57;;
3066;SDS011;1544;48.834;9.194;2023-08-21T15:30:32;4.63;;;4.33;;
3066;SDS011;1544;48.834;9.194;2023-08-21T15:33:08;4.40;;;4.13;;
3066;SDS011;1544;48.834;9.194;2023-08-21T15:35:44;4.27;;;3.90;;
3066;SDS011;1544;48.834;9.194;2023-08-21T15:38:20;4.83;;;4.20;;
3066;SDS011;1544;48.834;9.194;2023-08-21T15:40:56;4.60;;;3.60;;
3066;SDS011;1544;48.834;9.194;2023-08-21T15:43:32;4.80;;;4.40;;
3066;SDS011;1544;48.834;9.194;2023-08-21T15:46:08;4.60;;;4.10;;
3066;SDS011;1544;48.834;9.194;2023-08-21T15:48:44;4.67;;;4.27;;
3066;SDS011;1544;48.834;9.194;2023-08-21T15:51:20;4.90;;;4.60;;
3066;SDS011;1544;48.834;9.194;2023-08-21T15:53:55;4.33;;;4.07;;
3066;SDS011;1544;48.834;9.194;2023-08-21T15:56:31;4.53;;;4.23;;
3066;SDS011;1544;48.834;9.194;2023-08-21T15:59:07;5.00;;;4.60;;
3066;SDS011;1544;48.834;9.194;2023-08-21T16:01:43;4.50;;;4.00;;
3066;SDS011;1544;48.834;9.194;2023-08-21T16:04:19;4.90;;;4.00;;
3066;SDS011;1544;48.834;9.194;2023-08-21T16:06:55;4.87;;;4.57;;
3066;SDS011;1544;48.834;9.194;2023-08-21T16:09:31;5.63;;;4.73;;
3066;SDS011;1544;48.834;9.194;2023-08-21T16:12:07;4.80;;;4.50;;
3066;SDS011;1544;48.834;9.194;2023-08-21T16:14:43;4.70;;;4.40;;
3066;SDS011;1544;48.834;9.194;2023-08-21T16:17:19;4.30;;;3.90;;
3066;SDS011;1544;48.834;9.194;2023-08-21T16:19:55;4.50;;;4.30;;
3066;SDS011;1544;48.834;9.194;2023-08-21T16:22:33;5.13;;;4.83;;
3066;SDS011;1544;48.834;9.194;2023-08-21T16:25:10;4.97;;;4.77;;
3066;SDS011;1544;48.834;9.194;2023-08-21T16:27:48;4.73;;;4.43;;